23:31
Airports
History
Links
Donate
Help keep this website running!
PayPal
Bitcoin
This page is community maintained. The information is intended for PC simulator navigation or reference.
Always use approved charts for navigation.
UIIR
Irkutsk Northwest
Irkutsk Northwest (UIIR)
Irkutsk, Irkutskaya oblast, Russian Federation (664020)
(U)
Lat/Lng:52° 22' 3.76" N / 104° 11' 0.02" E
52.367712 / 104.18334
Elevation:1417'ft / 432mMSL
ID / ICAO:UIIR
Runways:1
Longest:14-32
Concrete 2,495m / 8,184ft
Nearby Weather23:00 GMT 2017-10-20
Nearby weather at UIII, Irkutsk located 11.4 nautical miles from UIIR
Altimeter: 30.15
Visibility: 6.2 statute miles
Wind: 1.9 knots (from VRB°)
Temp: 2°c / 36°f
Humidity: 93.1%

METAR: UIII 202300Z VRB01MPS 9999 BKN007CB 02/01 Q1021 R12/290250 NOSIG RMK QBB210 QFE723/0964

(Powered by phpweather)
Nearby VORs <50NM
Nearby NDBs
Runway 14 / 32
Dimensions:2494.5 x 60.1m 8184' x 197'ft
Surface:Concrete
Edge Lights:Medium intensity
Runway 14 [A]Runway 32 [B]
Heading:318°TH 138°TH
Lat:
Lng:
52° 21' 33.65"N
104° 11' 44.38"E
52° 22' 33.87"N
104° 10' 15.67"E
ALS:MALSFMALSF
TDZ:Yes, lighted
User Notes and Comments
52° 22' 3.76" N / 104° 11' 0.02" E
Distance To
Airport ID:
Nearby Airports
(C) Irkutsk 11.4 NM
UIII ( WX ) SE 127°
4 Oyek 17.0 NM
XIIO NE 42°
(C) Ust-Ordynskiy 39.2 NM
UIIO NE 35°
(C) Belaya 45.6 NM
UIIB NW 326°
4 Belsk 57.4 NM
UI10 NW 308°
4 Nizhnyaya Iret 82.3 NM
UI96 WNW 301°
4 Kyren 98.4 NM
UIIN WSW 241°
VFR Chart
Flight Planning at SkyVector.com